sensor_id;sensor_type;location;lat;lon;timestamp;temperature;humidity
7654;DHT22;3869;48.406;10.774;2023-04-24T00:00:02;11.60;99.90
7654;DHT22;3869;48.406;10.774;2023-04-24T00:02:32;11.60;99.90
7654;DHT22;3869;48.406;10.774;2023-04-24T00:05:01;11.60;99.90
7654;DHT22;3869;48.406;10.774;2023-04-24T00:07:31;11.60;99.90
7654;DHT22;3869;48.406;10.774;2023-04-24T00:09:59;11.50;99.90
7654;DHT22;3869;48.406;10.774;2023-04-24T00:12:27;11.50;99.90
7654;DHT22;3869;48.406;10.774;2023-04-24T00:14:55;11.50;99.90
7654;DHT22;3869;48.406;10.774;2023-04-24T00:17:23;11.50;99.90
7654;DHT22;3869;48.406;10.774;2023-04-24T00:19:51;11.50;99.90
7654;DHT22;3869;48.406;10.774;2023-04-24T00:22:25;11.50;99.90
7654;DHT22;3869;48.406;10.774;2023-04-24T00:24:54;11.40;99.90
7654;DHT22;3869;48.406;10.774;2023-04-24T00:27:23;11.40;99.90
7654;DHT22;3869;48.406;10.774;2023-04-24T00:29:51;11.40;99.90
7654;DHT22;3869;48.406;10.774;2023-04-24T00:32:19;11.40;99.90
7654;DHT22;3869;48.406;10.774;2023-04-24T00:34:47;11.40;99.90
7654;DHT22;3869;48.406;10.774;2023-04-24T00:37:15;11.40;99.90
7654;DHT22;3869;48.406;10.774;2023-04-24T00:39:43;11.40;99.90
7654;DHT22;3869;48.406;10.774;2023-04-24T00:42:12;11.30;99.90
7654;DHT22;3869;48.406;10.774;2023-04-24T00:44:41;11.30;99.90
7654;DHT22;3869;48.406;10.774;2023-04-24T00:47:09;11.30;99.90
7654;DHT22;3869;48.406;10.774;2023-04-24T00:49:38;11.30;99.90
7654;DHT22;3869;48.406;10.774;2023-04-24T00:52:06;11.30;99.90
7654;DHT22;3869;48.406;10.774;2023-04-24T00:54:35;11.30;99.90
7654;DHT22;3869;48.406;10.774;2023-04-24T00:57:03;11.30;99.90
7654;DHT22;3869;48.406;10.774;2023-04-24T00:59:33;11.20;99.90
7654;DHT22;3869;48.406;10.774;2023-04-24T01:02:02;11.30;99.90
7654;DHT22;3869;48.406;10.774;2023-04-24T01:04:30;11.30;99.90
7654;DHT22;3869;48.406;10.774;2023-04-24T01:06:58;11.30;99.90
7654;DHT22;3869;48.406;10.774;2023-04-24T01:09:26;11.30;99.90
7654;DHT22;3869;48.406;10.774;2023-04-24T01:11:54;11.30;99.90
7654;DHT22;3869;48.406;10.774;2023-04-24T01:14:23;11.30;99.90
7654;DHT22;3869;48.406;10.774;2023-04-24T01:16:52;11.30;99.90
7654;DHT22;3869;48.406;10.774;2023-04-24T01:19:20;11.20;99.90
7654;DHT22;3869;48.406;10.774;2023-04-24T01:21:51;11.20;99.90
7654;DHT22;3869;48.406;10.774;2023-04-24T01:24:22;11.20;99.90
7654;DHT22;3869;48.406;10.774;2023-04-24T01:26:50;11.20;99.90
7654;DHT22;3869;48.406;10.774;2023-04-24T01:29:18;11.20;99.90
7654;DHT22;3869;48.406;10.774;2023-04-24T01:31:46;11.20;99.90
7654;DHT22;3869;48.406;10.774;2023-04-24T01:34:14;11.20;99.90
7654;DHT22;3869;48.406;10.774;2023-04-24T01:36:45;11.20;99.90
7654;DHT22;3869;48.406;10.774;2023-04-24T01:39:13;11.20;99.90
7654;DHT22;3869;48.406;10.774;2023-04-24T01:41:43;11.20;99.90
7654;DHT22;3869;48.406;10.774;2023-04-24T01:44:11;11.20;99.90
7654;DHT22;3869;48.406;10.774;2023-04-24T01:46:39;11.20;99.90
7654;DHT22;3869;48.406;10.774;2023-04-24T01:49:07;11.20;99.90
7654;DHT22;3869;48.406;10.774;2023-04-24T01:51:35;11.10;99.90
7654;DHT22;3869;48.406;10.774;2023-04-24T01:54:04;11.10;99.90
7654;DHT22;3869;48.406;10.774;2023-04-24T01:56:34;11.10;99.90
7654;DHT22;3869;48.406;10.774;2023-04-24T01:59:04;11.00;99.90
7654;DHT22;3869;48.406;10.774;2023-04-24T02:01:34;11.00;99.90
7654;DHT22;3869;48.406;10.774;2023-04-24T02:04:03;11.00;99.90
7654;DHT22;3869;48.406;10.774;2023-04-24T02:06:32;11.00;99.90
7654;DHT22;3869;48.406;10.774;2023-04-24T02:09:00;11.00;99.90
7654;DHT22;3869;48.406;10.774;2023-04-24T02:11:28;10.90;99.90
7654;DHT22;3869;48.406;10.774;2023-04-24T02:13:56;10.90;99.90
7654;DHT22;3869;48.406;10.774;2023-04-24T02:16:25;10.90;99.90
7654;DHT22;3869;48.406;10.774;2023-04-24T02:18:53;10.90;99.90
7654;DHT22;3869;48.406;10.774;2023-04-24T02:21:21;10.90;99.90
7654;DHT22;3869;48.406;10.774;2023-04-24T02:23:49;10.90;99.90
7654;DHT22;3869;48.406;10.774;2023-04-24T02:26:17;10.80;99.90
7654;DHT22;3869;48.406;10.774;2023-04-24T02:28:45;10.90;99.90
7654;DHT22;3869;48.406;10.774;2023-04-24T02:31:13;10.90;99.90
7654;DHT22;3869;48.406;10.774;2023-04-24T02:33:42;10.90;99.90
7654;DHT22;3869;48.406;10.774;2023-04-24T02:36:10;10.90;99.90
7654;DHT22;3869;48.406;10.774;2023-04-24T02:38:39;10.90;99.90
7654;DHT22;3869;48.406;10.774;2023-04-24T02:41:07;10.90;99.90
7654;DHT22;3869;48.406;10.774;2023-04-24T02:43:35;10.90;99.90
7654;DHT22;3869;48.406;10.774;2023-04-24T02:46:03;10.90;99.90
7654;DHT22;3869;48.406;10.774;2023-04-24T02:48:31;10.90;99.90
7654;DHT22;3869;48.406;10.774;2023-04-24T02:51:01;10.90;99.90
7654;DHT22;3869;48.406;10.774;2023-04-24T02:53:28;10.90;99.90
7654;DHT22;3869;48.406;10.774;2023-04-24T02:55:57;10.60;99.90
7654;DHT22;3869;48.406;10.774;2023-04-24T02:58:25;10.80;99.90
7654;DHT22;3869;48.406;10.774;2023-04-24T03:00:53;10.90;99.90
7654;DHT22;3869;48.406;10.774;2023-04-24T03:03:23;10.80;99.90
7654;DHT22;3869;48.406;10.774;2023-04-24T03:05:52;10.80;99.90
7654;DHT22;3869;48.406;10.774;2023-04-24T03:08:21;10.80;99.90
7654;DHT22;3869;48.406;10.774;2023-04-24T03:10:49;10.80;99.90
7654;DHT22;3869;48.406;10.774;2023-04-24T03:13:17;10.90;99.90
7654;DHT22;3869;48.406;10.774;2023-04-24T03:15:45;10.90;99.90
7654;DHT22;3869;48.406;10.774;2023-04-24T03:18:13;10.90;99.90
7654;DHT22;3869;48.406;10.774;2023-04-24T03:20:41;10.90;99.90
7654;DHT22;3869;48.406;10.774;2023-04-24T03:23:09;10.80;99.90
7654;DHT22;3869;48.406;10.774;2023-04-24T03:25:39;10.80;99.90
7654;DHT22;3869;48.406;10.774;2023-04-24T03:28:07;10.80;99.90
7654;DHT22;3869;48.406;10.774;2023-04-24T03:30:35;10.80;99.90
7654;DHT22;3869;48.406;10.774;2023-04-24T03:33:03;10.90;99.90
7654;DHT22;3869;48.406;10.774;2023-04-24T03:35:31;10.80;99.90
7654;DHT22;3869;48.406;10.774;2023-04-24T03:37:59;10.80;99.90
7654;DHT22;3869;48.406;10.774;2023-04-24T03:40:27;10.80;99.90
7654;DHT22;3869;48.406;10.774;2023-04-24T03:42:57;10.80;99.90
7654;DHT22;3869;48.406;10.774;2023-04-24T03:45:25;10.80;99.90
7654;DHT22;3869;48.406;10.774;2023-04-24T03:47:53;10.80;99.90
7654;DHT22;3869;48.406;10.774;2023-04-24T03:50:21;10.80;99.90
7654;DHT22;3869;48.406;10.774;2023-04-24T03:52:49;10.70;99.90
7654;DHT22;3869;48.406;10.774;2023-04-24T03:55:17;10.70;99.90
7654;DHT22;3869;48.406;10.774;2023-04-24T03:57:45;10.70;99.90
7654;DHT22;3869;48.406;10.774;2023-04-24T04:00:15;10.70;99.90
7654;DHT22;3869;48.406;10.774;2023-04-24T04:02:43;10.70;99.90
7654;DHT22;3869;48.406;10.774;2023-04-24T04:05:11;10.60;99.90
7654;DHT22;3869;48.406;10.774;2023-04-24T04:07:39;10.70;99.90
7654;DHT22;3869;48.406;10.774;2023-04-24T04:10:07;10.70;99.90
7654;DHT22;3869;48.406;10.774;2023-04-24T04:12:35;10.70;99.90
7654;DHT22;3869;48.406;10.774;2023-04-24T04:15:04;10.70;99.90
7654;DHT22;3869;48.406;10.774;2023-04-24T04:17:35;10.60;99.90
7654;DHT22;3869;48.406;10.774;2023-04-24T04:20:05;10.60;99.90
7654;DHT22;3869;48.406;10.774;2023-04-24T04:22:36;10.60;99.90
7654;DHT22;3869;48.406;10.774;2023-04-24T04:25:04;10.60;99.90
7654;DHT22;3869;48.406;10.774;2023-04-24T04:27:33;10.60;99.90
7654;DHT22;3869;48.406;10.774;2023-04-24T04:30:02;10.60;99.90
7654;DHT22;3869;48.406;10.774;2023-04-24T04:32:31;10.60;99.90
7654;DHT22;3869;48.406;10.774;2023-04-24T04:35:01;10.60;99.90
7654;DHT22;3869;48.406;10.774;2023-04-24T04:37:30;10.60;99.90
7654;DHT22;3869;48.406;10.774;2023-04-24T04:39:58;10.60;99.90
7654;DHT22;3869;48.406;10.774;2023-04-24T04:42:26;10.60;99.90
7654;DHT22;3869;48.406;10.774;2023-04-24T04:44:55;10.60;99.90
7654;DHT22;3869;48.406;10.774;2023-04-24T04:47:24;10.60;99.90
7654;DHT22;3869;48.406;10.774;2023-04-24T04:49:53;10.60;99.90
7654;DHT22;3869;48.406;10.774;2023-04-24T04:52:22;10.60;99.90
7654;DHT22;3869;48.406;10.774;2023-04-24T04:54:52;10.60;99.90
7654;DHT22;3869;48.406;10.774;2023-04-24T04:57:20;10.60;99.90
7654;DHT22;3869;48.406;10.774;2023-04-24T04:59:48;10.60;99.90
7654;DHT22;3869;48.406;10.774;2023-04-24T05:02:16;10.60;99.90
7654;DHT22;3869;48.406;10.774;2023-04-24T05:04:44;10.60;99.90
7654;DHT22;3869;48.406;10.774;2023-04-24T05:07:13;10.60;99.90
7654;DHT22;3869;48.406;10.774;2023-04-24T05:09:42;10.60;99.90
7654;DHT22;3869;48.406;10.774;2023-04-24T05:12:11;10.60;99.90
7654;DHT22;3869;48.406;10.774;2023-04-24T05:14:39;10.70;99.90
7654;DHT22;3869;48.406;10.774;2023-04-24T05:17:07;10.70;99.90
7654;DHT22;3869;48.406;10.774;2023-04-24T05:19:35;10.80;99.90
7654;DHT22;3869;48.406;10.774;2023-04-24T05:22:04;10.80;99.90
7654;DHT22;3869;48.406;10.774;2023-04-24T05:24:33;10.90;99.90
7654;DHT22;3869;48.406;10.774;2023-04-24T05:27:03;10.90;99.90
7654;DHT22;3869;48.406;10.774;2023-04-24T05:29:31;10.90;99.90
7654;DHT22;3869;48.406;10.774;2023-04-24T05:32:00;11.00;99.90
7654;DHT22;3869;48.406;10.774;2023-04-24T05:34:28;10.90;99.90
7654;DHT22;3869;48.406;10.774;2023-04-24T05:36:56;10.90;99.90
7654;DHT22;3869;48.406;10.774;2023-04-24T05:39:24;11.00;99.90
7654;DHT22;3869;48.406;10.774;2023-04-24T05:41:52;11.00;99.90
7654;DHT22;3869;48.406;10.774;2023-04-24T05:44:21;11.00;99.90
7654;DHT22;3869;48.406;10.774;2023-04-24T05:46:49;11.00;99.90
7654;DHT22;3869;48.406;10.774;2023-04-24T05:49:17;11.00;99.90
7654;DHT22;3869;48.406;10.774;2023-04-24T05:51:45;11.00;99.90
7654;DHT22;3869;48.406;10.774;2023-04-24T05:54:13;11.00;99.90
7654;DHT22;3869;48.406;10.774;2023-04-24T05:56:41;11.10;99.90
7654;DHT22;3869;48.406;10.774;2023-04-24T05:59:09;11.10;99.90
7654;DHT22;3869;48.406;10.774;2023-04-24T06:01:38;11.10;99.90
7654;DHT22;3869;48.406;10.774;2023-04-24T06:04:07;11.10;99.90
7654;DHT22;3869;48.406;10.774;2023-04-24T06:06:35;11.10;99.90
7654;DHT22;3869;48.406;10.774;2023-04-24T06:09:03;11.20;99.90
7654;DHT22;3869;48.406;10.774;2023-04-24T06:11:31;11.20;99.90
7654;DHT22;3869;48.406;10.774;2023-04-24T06:13:59;11.20;99.90
7654;DHT22;3869;48.406;10.774;2023-04-24T06:16:27;11.20;99.90
7654;DHT22;3869;48.406;10.774;2023-04-24T06:18:56;11.20;99.90
7654;DHT22;3869;48.406;10.774;2023-04-24T06:21:24;11.10;99.90
7654;DHT22;3869;48.406;10.774;2023-04-24T06:23:52;11.20;99.90
7654;DHT22;3869;48.406;10.774;2023-04-24T06:26:20;11.20;99.90
7654;DHT22;3869;48.406;10.774;2023-04-24T06:28:48;11.20;99.90
7654;DHT22;3869;48.406;10.774;2023-04-24T06:31:17;11.20;99.90
7654;DHT22;3869;48.406;10.774;2023-04-24T06:33:44;11.30;99.90
7654;DHT22;3869;48.406;10.774;2023-04-24T06:36:14;11.30;99.90
7654;DHT22;3869;48.406;10.774;2023-04-24T06:38:42;11.40;99.90
7654;DHT22;3869;48.406;10.774;2023-04-24T06:41:10;11.40;99.90
7654;DHT22;3869;48.406;10.774;2023-04-24T06:43:38;11.50;99.90
7654;DHT22;3869;48.406;10.774;2023-04-24T06:46:06;11.50;99.90
7654;DHT22;3869;48.406;10.774;2023-04-24T06:48:34;11.50;99.90
7654;DHT22;3869;48.406;10.774;2023-04-24T06:51:02;11.50;99.90
7654;DHT22;3869;48.406;10.774;2023-04-24T06:53:31;11.50;99.90
7654;DHT22;3869;48.406;10.774;2023-04-24T06:55:59;11.50;99.90
7654;DHT22;3869;48.406;10.774;2023-04-24T06:58:27;11.50;99.90
7654;DHT22;3869;48.406;10.774;2023-04-24T07:00:55;11.50;99.90
7654;DHT22;3869;48.406;10.774;2023-04-24T07:03:23;11.50;99.90
7654;DHT22;3869;48.406;10.774;2023-04-24T07:05:52;11.50;99.90
7654;DHT22;3869;48.406;10.774;2023-04-24T07:08:20;11.50;99.90
7654;DHT22;3869;48.406;10.774;2023-04-24T07:10:50;11.40;99.90
7654;DHT22;3869;48.406;10.774;2023-04-24T07:13:18;11.40;99.90
7654;DHT22;3869;48.406;10.774;2023-04-24T07:15:46;11.40;99.90
7654;DHT22;3869;48.406;10.774;2023-04-24T07:18:15;11.40;99.90
7654;DHT22;3869;48.406;10.774;2023-04-24T07:20:43;11.40;99.90
7654;DHT22;3869;48.406;10.774;2023-04-24T07:23:11;11.30;99.90
7654;DHT22;3869;48.406;10.774;2023-04-24T07:25:39;11.30;99.90
7654;DHT22;3869;48.406;10.774;2023-04-24T07:28:08;11.20;99.90
7654;DHT22;3869;48.406;10.774;2023-04-24T07:30:36;11.20;99.90
7654;DHT22;3869;48.406;10.774;2023-04-24T07:33:04;11.10;99.90
7654;DHT22;3869;48.406;10.774;2023-04-24T07:35:33;11.00;99.90
7654;DHT22;3869;48.406;10.774;2023-04-24T07:38:02;10.90;99.90
7654;DHT22;3869;48.406;10.774;2023-04-24T07:40:30;10.90;99.90
7654;DHT22;3869;48.406;10.774;2023-04-24T07:42:58;10.90;99.90
7654;DHT22;3869;48.406;10.774;2023-04-24T07:45:27;11.00;99.90
7654;DHT22;3869;48.406;10.774;2023-04-24T07:47:55;11.20;99.90
7654;DHT22;3869;48.406;10.774;2023-04-24T07:50:23;11.20;99.90
7654;DHT22;3869;48.406;10.774;2023-04-24T07:52:51;11.30;99.90
7654;DHT22;3869;48.406;10.774;2023-04-24T07:55:19;11.30;99.90
7654;DHT22;3869;48.406;10.774;2023-04-24T07:57:51;11.30;99.90
7654;DHT22;3869;48.406;10.774;2023-04-24T08:00:20;11.40;99.90
7654;DHT22;3869;48.406;10.774;2023-04-24T08:02:49;11.50;99.90
7654;DHT22;3869;48.406;10.774;2023-04-24T08:05:18;11.60;99.90
7654;DHT22;3869;48.406;10.774;2023-04-24T08:07:46;11.70;99.90
7654;DHT22;3869;48.406;10.774;2023-04-24T08:10:15;11.90;99.90
7654;DHT22;3869;48.406;10.774;2023-04-24T08:12:43;11.80;99.90
7654;DHT22;3869;48.406;10.774;2023-04-24T08:15:11;11.90;99.90
7654;DHT22;3869;48.406;10.774;2023-04-24T08:17:39;12.00;99.90
7654;DHT22;3869;48.406;10.774;2023-04-24T08:20:09;12.20;99.90
7654;DHT22;3869;48.406;10.774;2023-04-24T08:22:40;12.10;99.90
7654;DHT22;3869;48.406;10.774;2023-04-24T08:25:09;12.30;99.90
7654;DHT22;3869;48.406;10.774;2023-04-24T08:27:37;12.40;99.90
7654;DHT22;3869;48.406;10.774;2023-04-24T08:30:06;12.60;99.90
7654;DHT22;3869;48.406;10.774;2023-04-24T08:32:35;12.60;99.90
7654;DHT22;3869;48.406;10.774;2023-04-24T08:35:04;12.60;99.90
7654;DHT22;3869;48.406;10.774;2023-04-24T08:37:33;12.80;99.90
7654;DHT22;3869;48.406;10.774;2023-04-24T08:40:01;12.90;99.90
7654;DHT22;3869;48.406;10.774;2023-04-24T08:42:34;13.10;99.90
7654;DHT22;3869;48.406;10.774;2023-04-24T08:45:04;13.30;99.90
7654;DHT22;3869;48.406;10.774;2023-04-24T08:47:33;13.30;99.90
7654;DHT22;3869;48.406;10.774;2023-04-24T08:50:02;13.40;99.90
7654;DHT22;3869;48.406;10.774;2023-04-24T08:52:34;13.50;99.90
7654;DHT22;3869;48.406;10.774;2023-04-24T08:55:03;13.40;99.90
7654;DHT22;3869;48.406;10.774;2023-04-24T08:57:31;13.30;99.90
7654;DHT22;3869;48.406;10.774;2023-04-24T09:00:00;13.20;99.90
7654;DHT22;3869;48.406;10.774;2023-04-24T09:02:29;13.20;99.90
7654;DHT22;3869;48.406;10.774;2023-04-24T09:04:59;13.10;99.90
7654;DHT22;3869;48.406;10.774;2023-04-24T09:07:27;13.20;99.90
7654;DHT22;3869;48.406;10.774;2023-04-24T09:09:59;13.20;99.90
7654;DHT22;3869;48.406;10.774;2023-04-24T09:12:28;13.30;99.90
7654;DHT22;3869;48.406;10.774;2023-04-24T09:14:57;13.20;99.90
7654;DHT22;3869;48.406;10.774;2023-04-24T09:17:25;13.20;99.90
7654;DHT22;3869;48.406;10.774;2023-04-24T09:19:55;13.10;99.90
7654;DHT22;3869;48.406;10.774;2023-04-24T09:22:23;13.10;99.90
7654;DHT22;3869;48.406;10.774;2023-04-24T09:25:02;13.20;99.90
7654;DHT22;3869;48.406;10.774;2023-04-24T09:27:32;13.30;99.90
7654;DHT22;3869;48.406;10.774;2023-04-24T09:30:01;13.50;99.90
7654;DHT22;3869;48.406;10.774;2023-04-24T09:32:29;13.50;99.90
7654;DHT22;3869;48.406;10.774;2023-04-24T09:35:09;13.60;99.90
7654;DHT22;3869;48.406;10.774;2023-04-24T09:37:38;13.60;99.90
7654;DHT22;3869;48.406;10.774;2023-04-24T09:40:12;13.70;99.90
7654;DHT22;3869;48.406;10.774;2023-04-24T09:42:43;13.70;99.90
7654;DHT22;3869;48.406;10.774;2023-04-24T09:45:11;13.70;99.90
7654;DHT22;3869;48.406;10.774;2023-04-24T09:47:42;13.70;99.90
7654;DHT22;3869;48.406;10.774;2023-04-24T09:50:12;13.80;99.90
7654;DHT22;3869;48.406;10.774;2023-04-24T09:52:42;13.60;99.90
7654;DHT22;3869;48.406;10.774;2023-04-24T09:55:16;13.60;99.90
7654;DHT22;3869;48.406;10.774;2023-04-24T09:57:52;13.50;99.90
7654;DHT22;3869;48.406;10.774;2023-04-24T10:00:25;13.30;99.90
7654;DHT22;3869;48.406;10.774;2023-04-24T10:02:57;13.20;99.90
7654;DHT22;3869;48.406;10.774;2023-04-24T10:05:28;12.80;99.90
7654;DHT22;3869;48.406;10.774;2023-04-24T10:07:58;12.50;99.90
7654;DHT22;3869;48.406;10.774;2023-04-24T10:10:27;12.20;99.90
7654;DHT22;3869;48.406;10.774;2023-04-24T10:12:55;12.00;99.90
7654;DHT22;3869;48.406;10.774;2023-04-24T10:15:24;11.80;99.90
7654;DHT22;3869;48.406;10.774;2023-04-24T10:17:53;11.70;99.90
7654;DHT22;3869;48.406;10.774;2023-04-24T10:20:23;11.60;99.90
7654;DHT22;3869;48.406;10.774;2023-04-24T10:22:52;11.50;99.90
7654;DHT22;3869;48.406;10.774;2023-04-24T10:25:23;11.70;99.90
7654;DHT22;3869;48.406;10.774;2023-04-24T10:27:54;11.80;99.90
7654;DHT22;3869;48.406;10.774;2023-04-24T10:30:24;11.90;99.90
7654;DHT22;3869;48.406;10.774;2023-04-24T10:32:52;12.00;99.90
7654;DHT22;3869;48.406;10.774;2023-04-24T10:35:20;12.20;99.90
7654;DHT22;3869;48.406;10.774;2023-04-24T10:37:54;12.20;99.90
7654;DHT22;3869;48.406;10.774;2023-04-24T10:40:26;12.30;99.90
7654;DHT22;3869;48.406;10.774;2023-04-24T10:42:56;12.40;99.90
7654;DHT22;3869;48.406;10.774;2023-04-24T10:45:25;12.40;99.90
7654;DHT22;3869;48.406;10.774;2023-04-24T10:47:57;12.60;99.90
7654;DHT22;3869;48.406;10.774;2023-04-24T10:50:26;12.80;99.90
7654;DHT22;3869;48.406;10.774;2023-04-24T10:53:05;13.10;99.90
7654;DHT22;3869;48.406;10.774;2023-04-24T10:55:43;13.30;99.90
7654;DHT22;3869;48.406;10.774;2023-04-24T10:58:12;13.60;99.90
7654;DHT22;3869;48.406;10.774;2023-04-24T11:00:42;13.70;99.90
7654;DHT22;3869;48.406;10.774;2023-04-24T11:03:25;13.60;99.90
7654;DHT22;3869;48.406;10.774;2023-04-24T11:05:56;13.60;99.90
7654;DHT22;3869;48.406;10.774;2023-04-24T11:08:29;13.60;99.90
7654;DHT22;3869;48.406;10.774;2023-04-24T11:11:00;13.50;99.90
7654;DHT22;3869;48.406;10.774;2023-04-24T11:14:04;13.60;99.90
7654;DHT22;3869;48.406;10.774;2023-04-24T11:16:34;13.70;99.90
7654;DHT22;3869;48.406;10.774;2023-04-24T11:19:05;13.80;99.90
7654;DHT22;3869;48.406;10.774;2023-04-24T11:21:41;14.00;99.90
7654;DHT22;3869;48.406;10.774;2023-04-24T11:24:32;14.30;99.90
7654;DHT22;3869;48.406;10.774;2023-04-24T11:27:06;14.50;99.90
7654;DHT22;3869;48.406;10.774;2023-04-24T11:29:41;14.60;99.90
7654;DHT22;3869;48.406;10.774;2023-04-24T11:32:18;14.60;99.90
7654;DHT22;3869;48.406;10.774;2023-04-24T11:34:47;14.70;99.90
7654;DHT22;3869;48.406;10.774;2023-04-24T11:37:16;14.80;99.90
7654;DHT22;3869;48.406;10.774;2023-04-24T11:39:44;14.80;99.90
7654;DHT22;3869;48.406;10.774;2023-04-24T11:42:14;14.80;99.90
7654;DHT22;3869;48.406;10.774;2023-04-24T11:44:44;14.70;99.90
7654;DHT22;3869;48.406;10.774;2023-04-24T11:47:14;14.80;99.90
7654;DHT22;3869;48.406;10.774;2023-04-24T11:49:42;14.90;99.90
7654;DHT22;3869;48.406;10.774;2023-04-24T11:52:10;14.90;99.90
7654;DHT22;3869;48.406;10.774;2023-04-24T11:54:38;14.90;99.90
7654;DHT22;3869;48.406;10.774;2023-04-24T11:57:13;14.90;99.70
7654;DHT22;3869;48.406;10.774;2023-04-24T11:59:41;14.80;99.90
7654;DHT22;3869;48.406;10.774;2023-04-24T12:02:20;14.70;99.90
7654;DHT22;3869;48.406;10.774;2023-04-24T12:04:48;14.60;99.90
7654;DHT22;3869;48.406;10.774;2023-04-24T12:07:17;14.50;99.90
7654;DHT22;3869;48.406;10.774;2023-04-24T12:09:46;14.40;99.90
7654;DHT22;3869;48.406;10.774;2023-04-24T12:12:17;14.30;99.90
7654;DHT22;3869;48.406;10.774;2023-04-24T12:14:48;14.40;99.90
7654;DHT22;3869;48.406;10.774;2023-04-24T12:17:16;14.40;99.90
7654;DHT22;3869;48.406;10.774;2023-04-24T12:19:47;14.30;99.90
7654;DHT22;3869;48.406;10.774;2023-04-24T12:22:15;14.40;99.90
7654;DHT22;3869;48.406;10.774;2023-04-24T12:24:59;14.40;99.90
7654;DHT22;3869;48.406;10.774;2023-04-24T12:27:31;14.50;99.90
7654;DHT22;3869;48.406;10.774;2023-04-24T12:30:02;14.50;99.90
7654;DHT22;3869;48.406;10.774;2023-04-24T12:32:31;14.50;99.90
7654;DHT22;3869;48.406;10.774;2023-04-24T12:35:03;14.60;99.90
7654;DHT22;3869;48.406;10.774;2023-04-24T12:37:33;14.50;99.90
7654;DHT22;3869;48.406;10.774;2023-04-24T12:40:05;14.40;99.80
7654;DHT22;3869;48.406;10.774;2023-04-24T12:42:42;14.40;99.60
7654;DHT22;3869;48.406;10.774;2023-04-24T12:45:10;14.60;99.90
7654;DHT22;3869;48.406;10.774;2023-04-24T12:47:39;14.70;99.40
7654;DHT22;3869;48.406;10.774;2023-04-24T12:50:10;14.90;99.40
7654;DHT22;3869;48.406;10.774;2023-04-24T12:52:39;14.90;98.20
7654;DHT22;3869;48.406;10.774;2023-04-24T12:55:08;14.70;97.80
7654;DHT22;3869;48.406;10.774;2023-04-24T12:57:37;14.50;97.20
7654;DHT22;3869;48.406;10.774;2023-04-24T13:00:07;14.20;97.40
7654;DHT22;3869;48.406;10.774;2023-04-24T13:02:35;14.30;97.90
7654;DHT22;3869;48.406;10.774;2023-04-24T13:05:04;14.40;97.80
7654;DHT22;3869;48.406;10.774;2023-04-24T13:07:33;14.30;96.90
7654;DHT22;3869;48.406;10.774;2023-04-24T13:10:01;14.50;98.40
7654;DHT22;3869;48.406;10.774;2023-04-24T13:12:29;14.70;98.00
7654;DHT22;3869;48.406;10.774;2023-04-24T13:14:58;14.80;97.90
7654;DHT22;3869;48.406;10.774;2023-04-24T13:17:26;15.00;97.30
7654;DHT22;3869;48.406;10.774;2023-04-24T13:19:54;15.10;96.80
7654;DHT22;3869;48.406;10.774;2023-04-24T13:22:22;15.00;96.30
7654;DHT22;3869;48.406;10.774;2023-04-24T13:24:52;14.80;96.10
7654;DHT22;3869;48.406;10.774;2023-04-24T13:27:20;14.70;96.60
7654;DHT22;3869;48.406;10.774;2023-04-24T13:29:48;14.70;96.90
7654;DHT22;3869;48.406;10.774;2023-04-24T13:32:16;14.70;97.20
7654;DHT22;3869;48.406;10.774;2023-04-24T13:34:44;14.70;97.20
7654;DHT22;3869;48.406;10.774;2023-04-24T13:37:12;14.70;96.80
7654;DHT22;3869;48.406;10.774;2023-04-24T13:39:40;14.30;96.70
7654;DHT22;3869;48.406;10.774;2023-04-24T13:42:10;14.20;97.20
7654;DHT22;3869;48.406;10.774;2023-04-24T13:44:39;14.20;96.80
7654;DHT22;3869;48.406;10.774;2023-04-24T13:47:07;14.30;97.70
7654;DHT22;3869;48.406;10.774;2023-04-24T13:49:35;14.20;97.00
7654;DHT22;3869;48.406;10.774;2023-04-24T13:52:03;14.20;96.80
7654;DHT22;3869;48.406;10.774;2023-04-24T13:54:31;14.00;97.00
7654;DHT22;3869;48.406;10.774;2023-04-24T13:56:59;13.90;96.80
7654;DHT22;3869;48.406;10.774;2023-04-24T13:59:30;13.90;96.60
7654;DHT22;3869;48.406;10.774;2023-04-24T14:01:58;13.90;97.20
7654;DHT22;3869;48.406;10.774;2023-04-24T14:04:26;13.90;96.50
7654;DHT22;3869;48.406;10.774;2023-04-24T14:06:54;13.80;96.80
7654;DHT22;3869;48.406;10.774;2023-04-24T14:09:22;13.60;96.60
7654;DHT22;3869;48.406;10.774;2023-04-24T14:11:51;13.70;97.30
7654;DHT22;3869;48.406;10.774;2023-04-24T14:14:19;13.80;97.30
7654;DHT22;3869;48.406;10.774;2023-04-24T14:16:48;13.70;97.50
7654;DHT22;3869;48.406;10.774;2023-04-24T14:19:16;13.70;97.10
7654;DHT22;3869;48.406;10.774;2023-04-24T14:21:44;13.70;97.30
7654;DHT22;3869;48.406;10.774;2023-04-24T14:24:12;13.80;98.10
7654;DHT22;3869;48.406;10.774;2023-04-24T14:26:40;13.90;97.60
7654;DHT22;3869;48.406;10.774;2023-04-24T14:29:08;13.90;97.50
7654;DHT22;3869;48.406;10.774;2023-04-24T14:31:41;13.80;97.30
7654;DHT22;3869;48.406;10.774;2023-04-24T14:34:10;13.60;97.00
7654;DHT22;3869;48.406;10.774;2023-04-24T14:36:38;13.50;96.90
7654;DHT22;3869;48.406;10.774;2023-04-24T14:39:07;13.50;96.60
7654;DHT22;3869;48.406;10.774;2023-04-24T14:41:35;13.40;96.20
7654;DHT22;3869;48.406;10.774;2023-04-24T14:44:04;13.30;96.20
7654;DHT22;3869;48.406;10.774;2023-04-24T14:46:32;13.30;96.00
7654;DHT22;3869;48.406;10.774;2023-04-24T14:49:00;13.20;95.70
7654;DHT22;3869;48.406;10.774;2023-04-24T14:51:30;13.10;96.10
7654;DHT22;3869;48.406;10.774;2023-04-24T14:53:58;13.10;97.00
7654;DHT22;3869;48.406;10.774;2023-04-24T14:56:26;13.10;96.90
7654;DHT22;3869;48.406;10.774;2023-04-24T14:58:54;13.20;97.80
7654;DHT22;3869;48.406;10.774;2023-04-24T15:01:22;13.30;97.40
7654;DHT22;3869;48.406;10.774;2023-04-24T15:03:51;13.30;97.40
7654;DHT22;3869;48.406;10.774;2023-04-24T15:06:19;13.50;97.70
7654;DHT22;3869;48.406;10.774;2023-04-24T15:08:49;13.50;97.80
7654;DHT22;3869;48.406;10.774;2023-04-24T15:11:17;13.60;97.40
7654;DHT22;3869;48.406;10.774;2023-04-24T15:13:45;13.70;96.70
7654;DHT22;3869;48.406;10.774;2023-04-24T15:16:13;13.60;96.40
7654;DHT22;3869;48.406;10.774;2023-04-24T15:18:41;13.50;95.80
7654;DHT22;3869;48.406;10.774;2023-04-24T15:21:09;13.50;96.50
7654;DHT22;3869;48.406;10.774;2023-04-24T15:23:39;13.60;95.80
7654;DHT22;3869;48.406;10.774;2023-04-24T15:26:08;13.60;96.20
7654;DHT22;3869;48.406;10.774;2023-04-24T15:28:36;13.70;96.90
7654;DHT22;3869;48.406;10.774;2023-04-24T15:31:04;13.90;96.90
7654;DHT22;3869;48.406;10.774;2023-04-24T15:33:32;13.90;96.20
7654;DHT22;3869;48.406;10.774;2023-04-24T15:36:00;13.80;95.70
7654;DHT22;3869;48.406;10.774;2023-04-24T15:38:28;13.70;95.30
7654;DHT22;3869;48.406;10.774;2023-04-24T15:40:56;13.50;94.90
7654;DHT22;3869;48.406;10.774;2023-04-24T15:43:25;13.50;95.20
7654;DHT22;3869;48.406;10.774;2023-04-24T15:45:53;13.30;94.90
7654;DHT22;3869;48.406;10.774;2023-04-24T15:48:21;13.30;95.50
7654;DHT22;3869;48.406;10.774;2023-04-24T15:50:49;13.20;95.50
7654;DHT22;3869;48.406;10.774;2023-04-24T15:53:17;13.10;94.90
7654;DHT22;3869;48.406;10.774;2023-04-24T15:55:48;13.10;95.30